Time;durP1;ratioP1;P1;durP2;ratioP2;P2;SDS_P1;SDS_P2;PMS_P1;PMS_P2;Temp;Humidity;BMP_temperature;BMP_pressure;BME280_temperature;BME280_humidity;BME280_pressure;Samples;Min_cycle;Max_cycle;Signal;HPM_P1;HPM_P2
2022/01/10 00:00:15;;;;;;;15.30;10.02;;;;;;;0.42;100.00;100324.03;839945;23;1154;-83
2022/01/10 00:01:14;;;;;;;15.77;10.25;;;;;;;0.43;100.00;100322.31;834219;23;931;-83
2022/01/10 00:01:37;;;;;;;19.13;10.85;;;;;;;0.39;100.00;100338.47;834074;23;4813;-83
2022/01/10 00:02:07;;;;;;;24.38;12.57;;;;;;;0.39;100.00;100334.22;839379;23;1277;-84
2022/01/10 00:02:30;;;;;;;23.63;12.90;;;;;;;0.33;100.00;100340.06;837122;23;1380;-83
2022/01/10 00:03:08;;;;;;;23.20;13.13;;;;;;;0.30;100.00;100327.06;837295;23;1324;-83
2022/01/10 00:03:42;;;;;;;22.60;11.70;;;;;;;0.25;100.00;100320.94;836103;23;994;-83
2022/01/10 00:04:05;;;;;;;21.58;11.27;;;;;;;0.21;100.00;100316.53;833657;23;1326;-83
2022/01/10 00:04:30;;;;;;;20.98;11.75;;;;;;;0.19;100.00;100343.88;812986;23;5940;-83
2022/01/10 00:04:51;;;;;;;19.88;11.40;;;;;;;0.15;100.00;100342.91;829368;23;1533;-83
2022/01/10 00:05:14;;;;;;;20.30;11.48;;;;;;;0.14;100.00;100342.88;826091;23;1181;-83
2022/01/10 00:05:35;;;;;;;20.63;11.90;;;;;;;0.17;100.00;100348.09;827385;23;849;-83
2022/01/10 00:06:09;;;;;;;20.90;12.05;;;;;;;0.22;100.00;100338.81;831692;23;1161;-83
2022/01/10 00:06:45;;;;;;;;;;;;;;;;;;;;;
2022/01/10 00:07:11;;;;;;;19.77;11.95;;;;;;;0.14;100.00;100319.72;834556;23;4245;-83
2022/01/10 00:07:49;;;;;;;22.05;12.57;;;;;;;0.11;100.00;100328.22;830063;23;1364;-83
2022/01/10 00:08:14;;;;;;;22.42;12.65;;;;;;;0.05;100.00;100322.88;832468;23;916;-83
2022/01/10 00:08:40;;;;;;;21.48;12.43;;;;;;;0.05;100.00;100316.84;833211;23;1391;-83
2022/01/10 00:09:04;;;;;;;20.90;11.85;;;;;;;0.08;100.00;100365.78;834250;23;1248;-83
2022/01/10 00:09:25;;;;;;;19.67;11.90;;;;;;;0.07;100.00;100334.09;836034;23;1493;-83
2022/01/10 00:09:49;;;;;;;19.02;11.45;;;;;;;0.07;100.00;100341.78;837956;23;1360;-83
2022/01/10 00:10:19;;;;;;;22.05;12.30;;;;;;;0.11;100.00;100314.47;837469;23;4234;-83
2022/01/10 00:10:47;;;;;;;22.10;12.00;;;;;;;0.14;100.00;100340.28;830583;23;1536;-83
2022/01/10 00:11:11;;;;;;;20.65;12.13;;;;;;;0.18;100.00;100362.72;835018;23;856;-83
2022/01/10 00:11:37;;;;;;;21.73;12.30;;;;;;;0.21;100.00;100354.19;834727;23;863;-83
2022/01/10 00:11:57;;;;;;;20.33;11.98;;;;;;;0.23;100.00;100368.00;829640;23;1224;-82
2022/01/10 00:12:18;;;;;;;22.20;12.15;;;;;;;0.19;100.00;100332.72;827600;23;800;-83
2022/01/10 00:12:46;;;;;;;22.35;11.95;;;;;;;0.15;100.00;100360.91;827947;23;935;-83
2022/01/10 00:13:24;;;;;;;23.27;12.02;;;;;;;0.10;100.00;100365.03;819072;23;4285;-83
2022/01/10 00:13:51;;;;;;;22.23;11.57;;;;;;;0.07;100.00;100364.94;834747;23;1368;-83
2022/01/10 00:14:15;;;;;;;20.33;11.93;;;;;;;0.07;100.00;100384.59;839252;23;903;-83
2022/01/10 00:14:36;;;;;;;21.13;11.63;;;;;;;0.03;100.00;100349.34;838377;23;1351;-83
2022/01/10 00:14:57;;;;;;;21.83;11.77;;;;;;;0.04;100.00;100354.53;834062;23;1355;-83
2022/01/10 00:15:20;;;;;;;19.63;11.60;;;;;;;0.02;100.00;100375.88;836826;23;1244;-83
2022/01/10 00:16:02;;;;;;;19.77;11.73;;;;;;;0.04;100.00;100330.53;833942;23;1221;-83
2022/01/10 00:16:25;;;;;;;17.42;11.40;;;;;;;0.06;100.00;100345.19;832350;23;6175;-83
2022/01/10 00:16:50;;;;;;;20.50;11.40;;;;;;;0.16;100.00;100338.63;830527;23;1387;-83
2022/01/10 00:17:24;;;;;;;18.08;11.57;;;;;;;0.26;100.00;100345.81;832025;23;934;-83
2022/01/10 00:17:49;;;;;;;18.90;11.23;;;;;;;0.28;100.00;100336.47;833461;23;1463;-83
2022/01/10 00:18:12;;;;;;;18.55;11.10;;;;;;;0.26;100.00;100345.81;832652;23;829;-84
2022/01/10 00:18:35;;;;;;;19.95;11.55;;;;;;;0.25;100.00;100348.31;831070;23;1324;-83
2022/01/10 00:18:59;;;;;;;22.15;11.65;;;;;;;0.25;100.00;100362.09;835037;23;1270;-83
2022/01/10 00:19:20;;;;;;;18.40;10.88;;;;;;;0.30;100.00;100380.22;829280;23;4227;-83
2022/01/10 00:19:46;;;;;;;20.98;11.65;;;;;;;0.28;100.00;100339.03;832387;23;930;-83
2022/01/10 00:20:19;;;;;;;18.63;10.85;;;;;;;0.27;100.00;100331.28;831072;23;952;-83
2022/01/10 00:20:40;;;;;;;17.80;10.82;;;;;;;0.23;100.00;100335.44;829225;23;1378;-83
2022/01/10 00:21:03;;;;;;;18.55;10.68;;;;;;;0.27;100.00;100363.00;836220;23;1326;-83
2022/01/10 00:21:31;;;;;;;19.13;11.07;;;;;;;0.24;100.00;100328.59;837533;23;971;-83
2022/01/10 00:22:06;;;;;;;21.70;11.57;;;;;;;0.22;100.00;100367.09;838638;23;1204;-83
2022/01/10 00:22:33;;;;;;;18.65;11.00;;;;;;;0.21;100.00;100361.91;836637;23;4706;-83
2022/01/10 00:22:54;;;;;;;20.30;11.07;;;;;;;0.20;100.00;100365.34;839206;23;896;-83
2022/01/10 00:23:15;;;;;;;20.73;11.63;;;;;;;0.19;100.00;100337.88;838217;23;1443;-84
2022/01/10 00:23:36;;;;;;;20.20;11.75;;;;;;;0.15;100.00;100370.31;834049;23;1192;-83
2022/01/10 00:23:57;;;;;;;21.23;11.65;;;;;;;0.14;100.00;100377.16;826068;23;1332;-83
2022/01/10 00:24:21;;;;;;;19.23;11.40;;;;;;;0.15;100.00;100347.16;830074;23;1223;-83
2022/01/10 00:24:45;;;;;;;21.10;11.48;;;;;;;0.13;100.00;100344.53;835832;23;1380;-83
2022/01/10 00:25:07;;;;;;;17.90;10.63;;;;;;;0.11;100.00;100373.59;834916;23;4334;-82
2022/01/10 00:25:28;;;;;;;19.05;11.07;;;;;;;0.09;100.00;100341.84;826139;23;1279;-83
2022/01/10 00:25:49;;;;;;;18.13;11.40;;;;;;;0.12;100.00;100375.34;829814;23;1285;-83
2022/01/10 00:26:12;;;;;;;19.67;11.25;;;;;;;0.15;100.00;100380.59;838181;23;902;-83
2022/01/10 00:26:35;;;;;;;20.83;11.98;;;;;;;0.15;100.00;100365.16;834300;23;1327;-83
2022/01/10 00:27:00;;;;;;;20.52;11.73;;;;;;;0.15;100.00;100378.00;834709;23;1311;-83
2022/01/10 00:27:29;;;;;;;19.13;11.90;;;;;;;0.17;100.00;100366.97;831898;23;824;-83
2022/01/10 00:27:57;;;;;;;20.38;12.00;;;;;;;0.13;100.00;100354.81;825754;23;1249;-83
2022/01/10 00:28:22;;;;;;;23.60;11.63;;;;;;;0.14;100.00;100379.72;819064;23;4477;-83
2022/01/10 00:28:45;;;;;;;22.20;11.63;;;;;;;0.15;100.00;100348.06;829262;23;1454;-83
2022/01/10 00:29:09;;;;;;;20.52;11.30;;;;;;;0.14;100.00;100373.72;837664;23;1882;-83
2022/01/10 00:29:30;;;;;;;21.02;11.48;;;;;;;0.11;100.00;100346.22;834261;23;1335;-83
2022/01/10 00:30:01;;;;;;;20.88;11.40;;;;;;;0.09;100.00;100383.81;841787;23;1364;-83
2022/01/10 00:30:26;;;;;;;21.75;11.60;;;;;;;0.10;100.00;100354.75;836581;23;1290;-83
2022/01/10 00:31:02;;;;;;;19.95;10.70;;;;;;;0.15;100.00;100353.19;837168;23;1212;-83
2022/01/10 00:31:26;;;;;;;19.27;11.00;;;;;;;0.21;100.00;100347.38;836518;23;4955;-82
2022/01/10 00:31:54;;;;;;;20.17;11.70;;;;;;;0.30;100.00;100354.50;836578;23;864;-83
2022/01/10 00:32:17;;;;;;;20.42;11.20;;;;;;;0.30;100.00;100339.94;830438;23;1201;-83
2022/01/10 00:32:41;;;;;;;18.70;11.55;;;;;;;0.29;100.00;100373.31;835098;23;1422;-83
2022/01/10 00:33:07;;;;;;;18.92;11.38;;;;;;;0.28;100.00;100344.16;833840;23;1188;-83
2022/01/10 00:33:28;;;;;;;20.55;10.85;;;;;;;0.29;100.00;100350.19;829847;23;1349;-83
2022/01/10 00:33:57;;;;;;;18.97;11.17;;;;;;;0.28;100.00;100339.03;830650;23;1198;-83
2022/01/10 00:34:21;;;;;;;18.00;11.10;;;;;;;0.31;100.00;100363.97;813849;23;4312;-83
2022/01/10 00:34:48;;;;;;;18.48;10.35;;;;;;;0.34;100.00;100362.34;829459;23;1289;-83
2022/01/10 00:35:10;;;;;;;20.85;11.48;;;;;;;0.33;100.00;100358.06;833995;23;1267;-83
2022/01/10 00:35:30;;;;;;;20.58;11.35;;;;;;;0.37;100.00;100373.56;837843;23;1266;-83
2022/01/10 00:36:11;;;;;;;20.77;11.35;;;;;;;0.34;100.00;100346.06;838721;23;1276;-84
2022/01/10 00:36:33;;;;;;;22.30;12.65;;;;;;;0.32;100.00;100370.88;837975;23;1315;-83
2022/01/10 00:36:57;;;;;;;21.10;12.20;;;;;;;0.30;100.00;100372.50;834056;23;1357;-83
2022/01/10 00:37:21;;;;;;;20.13;11.88;;;;;;;0.32;100.00;100371.72;819874;23;4249;-82
2022/01/10 00:37:49;;;;;;;21.15;11.82;;;;;;;0.30;100.00;100368.22;831049;23;1319;-83
2022/01/10 00:38:22;;;;;;;20.75;11.48;;;;;;;0.28;100.00;100344.16;837559;23;861;-83
2022/01/10 00:38:43;;;;;;;22.33;11.90;;;;;;;0.26;100.00;100330.38;839644;23;844;-83
2022/01/10 00:39:07;;;;;;;23.98;11.73;;;;;;;0.27;100.00;100354.41;834370;23;1241;-83
2022/01/10 00:39:31;;;;;;;19.80;11.75;;;;;;;0.23;100.00;100353.44;826381;23;884;-83
2022/01/10 00:39:57;;;;;;;20.77;11.88;;;;;;;0.22;100.00;100364.53;825880;23;1265;-83
2022/01/10 00:40:23;;;;;;;21.80;11.98;;;;;;;0.24;100.00;100369.75;829469;23;4486;-83
2022/01/10 00:40:49;;;;;;;22.52;12.40;;;;;;;0.22;100.00;100336.25;834156;23;1336;-83
2022/01/10 00:41:34;;;;;;;19.33;11.65;;;;;;;0.25;100.00;100381.75;841752;23;1465;-83
2022/01/10 00:41:56;;;;;;;19.90;11.73;;;;;;;0.22;100.00;100372.25;841988;23;889;-82
2022/01/10 00:42:19;;;;;;;20.00;11.98;;;;;;;0.16;100.00;100346.34;833517;23;1233;-83
2022/01/10 00:42:40;;;;;;;22.33;12.73;;;;;;;0.14;100.00;100345.44;839433;23;844;-83
2022/01/10 00:43:01;;;;;;;22.05;12.75;;;;;;;0.10;100.00;100343.59;829451;23;1302;-83
2022/01/10 00:43:40;;;;;;;22.70;12.10;;;;;;;0.10;100.00;100349.59;820283;23;4707;-83
2022/01/10 00:44:06;;;;;;;22.77;12.45;;;;;;;0.10;100.00;100371.88;829674;23;1289;-83
2022/01/10 00:44:31;;;;;;;22.20;12.18;;;;;;;0.14;100.00;100350.59;833353;23;1240;-83
2022/01/10 00:44:57;;;;;;;20.38;12.00;;;;;;;0.20;100.00;100349.91;830077;23;1268;-83
2022/01/10 00:45:23;;;;;;;21.80;12.60;;;;;;;0.18;100.00;100378.13;829891;23;1293;-83
2022/01/10 00:45:53;;;;;;;22.15;12.27;;;;;;;0.21;100.00;100351.63;830132;23;1292;-84
2022/01/10 00:46:23;;;;;;;22.85;12.45;;;;;;;0.21;100.00;100387.63;834190;23;4303;-82
2022/01/10 00:46:52;;;;;;;22.95;12.43;;;;;;;0.23;100.00;100376.56;834415;23;1234;-83
2022/01/10 00:47:18;;;;;;;19.92;12.10;;;;;;;0.21;100.00;100373.09;840114;23;868;-83
2022/01/10 00:47:43;;;;;;;19.98;11.88;;;;;;;0.24;100.00;100391.19;838327;23;1272;-83
2022/01/10 00:48:05;;;;;;;19.75;12.00;;;;;;;0.23;100.00;100388.56;835677;23;801;-83
2022/01/10 00:48:26;;;;;;;22.05;12.30;;;;;;;0.23;100.00;100365.41;834161;23;1251;-83
2022/01/10 00:48:49;;;;;;;20.45;11.98;;;;;;;0.20;100.00;100383.31;837625;23;1320;-83
2022/01/10 00:49:09;;;;;;;21.77;12.05;;;;;;;0.19;100.00;100356.72;834563;23;4347;-83
2022/01/10 00:49:30;;;;;;;22.35;11.60;;;;;;;0.21;100.00;100362.81;830959;23;1192;-83
2022/01/10 00:49:51;;;;;;;20.80;11.13;;;;;;;0.22;100.00;100389.38;831337;23;834;-83
2022/01/10 00:50:13;;;;;;;20.27;11.30;;;;;;;0.19;100.00;100385.00;838740;23;1191;-83
2022/01/10 00:50:40;;;;;;;18.17;11.32;;;;;;;0.17;100.00;100384.09;830333;23;1299;-84
2022/01/10 00:51:01;;;;;;;19.42;12.02;;;;;;;0.20;100.00;100368.75;835002;23;1493;-83
2022/01/10 00:51:21;;;;;;;21.38;11.88;;;;;;;0.18;100.00;100357.56;833856;23;1054;-83
2022/01/10 00:51:45;;;;;;;20.83;12.03;;;;;;;0.18;100.00;100378.13;839184;23;1335;-82
2022/01/10 00:52:11;;;;;;;20.73;11.52;;;;;;;0.17;100.00;100390.09;836213;23;4348;-83
2022/01/10 00:52:34;;;;;;;20.48;11.50;;;;;;;0.18;100.00;100385.84;834558;23;1428;-83
2022/01/10 00:53:00;;;;;;;20.80;11.40;;;;;;;0.19;100.00;100390.16;830322;23;1301;-83
2022/01/10 00:53:26;;;;;;;20.33;11.52;;;;;;;0.17;100.00;100387.53;830074;23;1419;-83
2022/01/10 00:53:50;;;;;;;21.92;11.57;;;;;;;0.18;100.00;100367.84;830318;23;1300;-83
2022/01/10 00:54:13;;;;;;;22.20;12.02;;;;;;;0.18;100.00;100411.56;828199;23;1002;-83
2022/01/10 00:54:35;;;;;;;21.52;11.73;;;;;;;0.16;100.00;100402.91;825393;23;1146;-83
2022/01/10 00:54:58;;;;;;;21.65;11.88;;;;;;;0.19;100.00;100385.00;832845;23;1290;-84
2022/01/10 00:55:22;;;;;;;19.12;11.42;;;;;;;0.18;100.00;100398.69;822880;23;4280;-83
2022/01/10 00:55:50;;;;;;;18.57;11.30;;;;;;;0.17;100.00;100394.38;838656;23;781;-83
2022/01/10 00:56:11;;;;;;;19.83;11.95;;;;;;;0.15;100.00;100372.88;835044;23;1367;-83
2022/01/10 00:56:37;;;;;;;19.17;11.52;;;;;;;0.16;100.00;100387.47;830946;23;1475;-82
2022/01/10 00:57:03;;;;;;;18.95;11.75;;;;;;;0.15;100.00;100390.88;834121;23;1366;-83
2022/01/10 00:57:29;;;;;;;18.63;11.70;;;;;;;0.15;100.00;100396.91;836904;23;1245;-83
2022/01/10 00:57:55;;;;;;;18.02;11.98;;;;;;;0.20;100.00;100414.19;838405;23;1301;-83
2022/01/10 00:58:15;;;;;;;19.65;11.65;;;;;;;0.20;100.00;100397.03;833261;23;4214;-82
2022/01/10 00:58:41;;;;;;;21.25;11.60;;;;;;;0.21;100.00;100375.66;833428;23;1305;-83
2022/01/10 00:59:07;;;;;;;20.33;11.93;;;;;;;0.22;100.00;100373.94;833858;23;1546;-82
2022/01/10 00:59:36;;;;;;;17.80;11.23;;;;;;;0.26;100.00;100396.38;837186;23;1433;-83
2022/01/10 00:59:59;;;;;;;19.83;11.45;;;;;;;0.26;100.00;100397.22;834520;23;1280;-83
2022/01/10 01:00:23;;;;;;;19.58;11.46;;;;;;;0.34;100.00;100377.78;831315;23;820;-83
2022/01/10 01:00:46;;;;;;;20.50;11.60;;;;;;;0.32;100.00;100394.88;829794;23;1218;-83
2022/01/10 01:01:07;;;;;;;17.17;11.25;;;;;;;0.36;100.00;100402.69;816407;23;4239;-83
2022/01/10 01:01:28;;;;;;;19.95;12.07;;;;;;;0.33;100.00;100429.16;832747;23;1066;-84
2022/01/10 01:01:54;;;;;;;21.05;12.07;;;;;;;0.28;100.00;100405.88;833508;23;1329;-83
2022/01/10 01:02:19;;;;;;;19.88;12.10;;;;;;;0.29;100.00;100389.63;835388;23;974;-82
2022/01/10 01:02:40;;;;;;;18.45;11.50;;;;;;;0.29;100.00;100407.63;829524;23;1262;-83
2022/01/10 01:03:03;;;;;;;18.25;11.40;;;;;;;0.29;100.00;100404.19;834386;23;1289;-83
2022/01/10 01:03:36;;;;;;;21.65;11.95;;;;;;;0.28;100.00;100416.16;833791;23;1401;-82
2022/01/10 01:04:07;;;;;;;18.65;11.43;;;;;;;0.18;100.00;100406.41;831316;23;1520;-83
2022/01/10 01:04:28;;;;;;;18.55;11.32;;;;;;;0.15;100.00;100402.03;833495;23;4738;-83
2022/01/10 01:05:05;;;;;;;20.95;11.40;;;;;;;0.19;100.00;100381.56;832353;23;1209;-83
2022/01/10 01:05:27;;;;;;;18.23;12.23;;;;;;;0.14;100.00;100381.44;832820;23;1322;-83
2022/01/10 01:05:50;;;;;;;22.92;12.48;;;;;;;0.17;100.00;100396.94;836877;23;1168;-83
2022/01/10 01:06:13;;;;;;;18.90;12.25;;;;;;;0.17;100.00;100386.66;833766;23;1370;-83
2022/01/10 01:06:48;;;;;;;20.58;11.85;;;;;;;0.17;100.00;100392.66;838892;23;848;-83
2022/01/10 01:07:13;;;;;;;20.27;12.20;;;;;;;0.16;100.00;100388.34;820335;23;4339;-83
2022/01/10 01:07:37;;;;;;;19.58;12.40;;;;;;;0.11;100.00;100382.19;829507;23;1327;-83
2022/01/10 01:08:01;;;;;;;19.23;11.98;;;;;;;0.09;100.00;100377.81;829763;23;951;-83
2022/01/10 01:08:27;;;;;;;20.42;11.60;;;;;;;0.07;100.00;100392.31;829700;23;1323;-83
2022/01/10 01:08:47;;;;;;;18.38;11.57;;;;;;;0.02;100.00;100384.44;833632;23;1257;-83
2022/01/10 01:09:12;;;;;;;19.10;11.52;;;;;;;0.04;100.00;100405.91;833431;23;1975;-83
2022/01/10 01:09:53;;;;;;;21.80;12.10;;;;;;;0.08;100.00;100396.63;839756;23;1015;-83
2022/01/10 01:12:47;;;;;;;20.67;12.48;;;;;;;0.02;100.00;100401.59;833640;23;1186;-83
2022/01/10 01:13:55;;;;;;;19.88;11.77;;;;;;;0.39;100.00;100402.78;843097;23;946;-83
2022/01/10 01:14:26;;;;;;;18.00;11.00;;;;;;;0.37;100.00;100422.44;839722;23;1310;-83
2022/01/10 01:14:53;;;;;;;18.80;11.20;;;;;;;0.29;100.00;100428.22;833605;23;1526;-83
2022/01/10 01:15:29;;;;;;;17.08;11.05;;;;;;;0.24;100.00;100403.16;832871;23;1455;-83
2022/01/10 01:17:08;;;;;;;17.13;11.73;;;;;;;0.16;100.00;100405.47;835872;23;4902;-83
2022/01/10 01:17:32;;;;;;;18.95;11.95;;;;;;;0.13;100.00;100421.66;837074;23;1214;-83
2022/01/10 01:18:11;;;;;;;20.27;11.55;;;;;;;0.07;100.00;100397.44;833921;23;1414;-83
2022/01/10 01:20:20;;;;;;;17.05;11.60;;;;;;;0.04;100.00;100415.34;832599;23;4782;-84
2022/01/10 01:23:59;;;;;;;17.58;11.60;;;;;;;0.07;100.00;100410.28;838630;23;1508;-83
2022/01/10 01:24:29;;;;;;;19.30;11.80;;;;;;;-0.07;100.00;100444.13;838623;23;1383;-83
2022/01/10 01:24:50;;;;;;;20.70;11.98;;;;;;;-0.08;100.00;100444.94;840935;23;800;-83
2022/01/10 01:25:14;;;;;;;20.13;12.35;;;;;;;-0.11;100.00;100437.13;837225;23;4303;-82
2022/01/10 01:25:35;;;;;;;19.38;11.75;;;;;;;-0.13;100.00;100428.47;839285;23;967;-83
2022/01/10 01:25:59;;;;;;;19.90;12.00;;;;;;;-0.16;100.00;100433.53;838641;23;1158;-83
2022/01/10 01:26:27;;;;;;;19.48;11.75;;;;;;;-0.13;100.00;100412.19;838985;23;815;-83
2022/01/10 01:26:52;;;;;;;18.58;11.65;;;;;;;-0.12;100.00;100448.22;832584;23;1442;-83
2022/01/10 01:27:13;;;;;;;18.70;12.25;;;;;;;-0.14;100.00;100431.88;837663;23;1218;-84
2022/01/10 01:27:50;;;;;;;17.47;11.77;;;;;;;-0.11;100.00;100416.59;839014;23;808;-83
2022/01/10 01:28:13;;;;;;;19.63;11.73;;;;;;;-0.13;100.00;100428.47;838396;23;4206;-83
2022/01/10 01:28:35;;;;;;;20.70;12.27;;;;;;;-0.09;100.00;100460.31;833844;23;1508;-83
2022/01/10 01:28:58;;;;;;;20.15;11.77;;;;;;;-0.11;100.00;100449.09;830313;23;1363;-83
2022/01/10 01:29:26;;;;;;;21.20;12.35;;;;;;;-0.12;100.00;100414.81;833333;23;1882;-83
2022/01/10 01:29:47;;;;;;;19.90;11.80;;;;;;;-0.10;100.00;100461.13;837783;23;1386;-82
2022/01/10 01:30:09;;;;;;;18.83;11.77;;;;;;;-0.11;100.00;100420.81;838478;23;1156;-83
2022/01/10 01:30:33;;;;;;;21.02;12.15;;;;;;;-0.10;100.00;100454.28;826659;23;1335;-83
2022/01/10 01:30:54;;;;;;;21.08;12.15;;;;;;;-0.10;100.00;100459.41;829879;23;1178;-83
2022/01/10 01:31:15;;;;;;;19.10;11.85;;;;;;;-0.09;100.00;100442.31;824713;23;4304;-83
2022/01/10 01:31:43;;;;;;;19.88;12.05;;;;;;;-0.04;100.00;100461.38;830078;23;1323;-83
2022/01/10 01:32:04;;;;;;;20.05;12.07;;;;;;;-0.07;100.00;100456.09;830542;23;1374;-83
2022/01/10 01:32:25;;;;;;;19.48;12.23;;;;;;;-0.08;100.00;100426.97;834107;23;1308;-83
2022/01/10 01:32:49;;;;;;;18.95;12.13;;;;;;;-0.06;100.00;100460.41;829842;23;857;-83
2022/01/10 01:33:14;;;;;;;19.02;12.30;;;;;;;-0.06;100.00;100466.41;826587;23;1185;-83
2022/01/10 01:33:35;;;;;;;18.17;11.30;;;;;;;-0.06;100.00;100434.72;830077;23;1264;-83
2022/01/10 01:33:56;;;;;;;19.52;11.45;;;;;;;-0.08;100.00;100438.94;838108;23;1424;-83
2022/01/10 01:34:19;;;;;;;19.50;11.40;;;;;;;-0.10;100.00;100436.28;838136;23;4236;-83
2022/01/10 01:34:42;;;;;;;21.63;11.30;;;;;;;-0.10;100.00;100453.41;829833;23;1268;-82
2022/01/10 01:35:09;;;;;;;19.58;11.65;;;;;;;-0.14;100.00;100436.16;829831;23;1289;-83
2022/01/10 01:35:45;;;;;;;18.33;11.32;;;;;;;-0.15;100.00;100452.38;834458;23;1343;-83
2022/01/10 01:36:11;;;;;;;17.10;10.85;;;;;;;-0.15;100.00;100453.28;830962;23;958;-83
2022/01/10 01:36:33;;;;;;;17.90;11.07;;;;;;;-0.16;100.00;100471.22;834548;23;1504;-83
2022/01/10 01:37:00;;;;;;;17.25;11.35;;;;;;;-0.21;100.00;100476.16;826723;23;1289;-82
2022/01/10 01:37:27;;;;;;;19.60;11.20;;;;;;;-0.22;100.00;100467.59;826022;23;4218;-83
2022/01/10 01:37:51;;;;;;;21.48;11.60;;;;;;;-0.22;100.00;100469.28;826009;23;1280;-83
2022/01/10 01:38:17;;;;;;;20.33;11.48;;;;;;;-0.24;100.00;100456.38;830937;23;1224;-82
2022/01/10 01:38:58;;;;;;;21.58;11.95;;;;;;;-0.26;100.00;100464.88;829108;23;1331;-83
2022/01/10 01:39:25;;;;;;;18.48;11.57;;;;;;;-0.27;100.00;100442.56;830037;23;1287;-84
2022/01/10 01:39:55;;;;;;;22.92;11.85;;;;;;;-0.27;100.00;100488.78;826340;23;1338;-83
2022/01/10 01:40:28;;;;;;;19.67;11.88;;;;;;;-0.24;100.00;100452.94;825897;23;4294;-83
2022/01/10 01:41:24;;;;;;;19.10;11.88;;;;;;;-0.16;100.00;100448.06;834466;23;1441;-83
2022/01/10 01:42:18;;;;;;;23.38;11.95;;;;;;;-0.12;100.00;100476.50;830417;23;1376;-83
2022/01/10 01:42:45;;;;;;;20.33;12.52;;;;;;;-0.16;100.00;100443.81;836188;23;871;-83
2022/01/10 01:43:08;;;;;;;18.17;11.70;;;;;;;-0.16;100.00;100448.94;834079;23;4299;-83
2022/01/10 01:43:29;;;;;;;18.02;11.73;;;;;;;-0.15;100.00;100465.22;834103;23;1335;-83
2022/01/10 01:43:55;;;;;;;17.90;12.18;;;;;;;-0.19;100.00;100472.81;838242;23;1339;-83
2022/01/10 01:44:16;;;;;;;18.63;11.75;;;;;;;-0.20;100.00;100457.38;839803;23;847;-83
2022/01/10 01:44:39;;;;;;;16.92;11.38;;;;;;;-0.18;100.00;100456.59;838265;23;1119;-83
2022/01/10 01:45:05;;;;;;;17.73;11.57;;;;;;;-0.13;100.00;100497.88;839140;23;1198;-83
2022/01/10 01:45:42;;;;;;;18.05;11.63;;;;;;;-0.13;100.00;100482.44;830222;23;1323;-83
2022/01/10 01:46:13;;;;;;;16.73;11.07;;;;;;;-0.07;100.00;100505.81;820212;23;4189;-83
2022/01/10 01:46:42;;;;;;;19.05;11.70;;;;;;;-0.08;100.00;100483.50;837632;23;1471;-82
2022/01/10 01:47:13;;;;;;;19.50;11.70;;;;;;;-0.04;100.00;100498.19;829831;23;1372;-83
2022/01/10 01:47:37;;;;;;;17.05;11.63;;;;;;;-0.02;100.00;100467.41;828922;23;1265;-83
2022/01/10 01:48:23;;;;;;;19.20;11.10;;;;;;;0.04;100.00;100482.16;833164;23;1350;-83
2022/01/10 01:48:57;;;;;;;;;;;;;;;;;;;;;
2022/01/10 01:49:26;;;;;;;18.13;12.10;;;;;;;0.09;100.00;100490.94;834466;23;4222;-83
2022/01/10 01:49:53;;;;;;;18.48;11.50;;;;;;;0.06;100.00;100503.69;838429;23;1283;-83
2022/01/10 01:50:17;;;;;;;17.02;11.32;;;;;;;0.04;100.00;100488.19;843373;23;1359;-83
2022/01/10 01:50:50;;;;;;;19.05;10.88;;;;;;;0.04;100.00;100466.75;843733;23;1327;-83
2022/01/10 01:51:25;;;;;;;17.40;11.38;;;;;;;0.01;100.00;100492.34;838702;23;851;-83
2022/01/10 01:51:46;;;;;;;18.33;11.30;;;;;;;-0.01;100.00;100485.44;831187;23;1304;-83
2022/01/10 01:52:09;;;;;;;19.48;11.02;;;;;;;-0.02;100.00;100481.13;829620;23;4345;-83
2022/01/10 01:52:33;;;;;;;17.83;11.23;;;;;;;-0.02;100.00;100468.28;830181;23;989;-83
2022/01/10 01:52:54;;;;;;;20.35;11.60;;;;;;;-0.03;100.00;100469.13;834529;23;1081;-82
2022/01/10 01:53:25;;;;;;;17.48;11.50;;;;;;;-0.02;100.00;100499.13;838146;23;1391;-83
2022/01/10 01:53:47;;;;;;;17.13;11.18;;;;;;;0.07;100.00;100485.72;834228;23;986;-83
2022/01/10 01:54:09;;;;;;;17.25;11.60;;;;;;;0.16;100.00;100477.47;826982;23;1268;-82
2022/01/10 01:54:30;;;;;;;16.98;11.30;;;;;;;0.19;100.00;100489.53;827182;23;1354;-84
2022/01/10 01:54:52;;;;;;;18.08;11.05;;;;;;;0.19;100.00;100474.97;838021;23;1332;-83
2022/01/10 01:55:13;;;;;;;17.75;10.82;;;;;;;0.23;100.00;100515.41;819415;23;4237;-83
2022/01/10 01:55:34;;;;;;;17.58;10.70;;;;;;;0.25;100.00;100494.88;826901;23;1507;-83
2022/01/10 01:56:01;;;;;;;16.50;10.85;;;;;;;0.28;100.00;100477.00;822364;23;1521;-84
2022/01/10 01:56:27;;;;;;;16.13;10.95;;;;;;;0.25;100.00;100511.22;822923;24;1432;-83
2022/01/10 01:57:01;;;;;;;15.23;10.85;;;;;;;0.27;100.00;100477.84;826688;23;1362;-83
2022/01/10 01:57:33;;;;;;;16.98;10.77;;;;;;;0.26;100.00;100500.06;823255;23;1280;-83
2022/01/10 01:58:01;;;;;;;18.77;10.93;;;;;;;0.27;100.00;100517.25;832433;23;927;-83
2022/01/10 01:58:29;;;;;;;17.90;11.43;;;;;;;0.23;100.00;100494.84;827443;23;4198;-83
2022/01/10 01:58:54;;;;;;;18.83;11.20;;;;;;;0.21;100.00;100472.47;843132;23;2070;-83
2022/01/10 01:59:21;;;;;;;18.90;10.98;;;;;;;0.17;100.00;100479.22;837453;23;1418;-83
2022/01/10 01:59:42;;;;;;;18.25;11.10;;;;;;;0.15;100.00;100497.16;833914;23;1547;-83
2022/01/10 02:00:05;;;;;;;16.73;11.13;;;;;;;0.14;100.00;100476.53;838645;23;1247;-84
2022/01/10 02:00:38;;;;;;;18.45;11.38;;;;;;;0.12;100.00;100511.59;834764;23;768;-82
2022/01/10 02:01:01;;;;;;;18.98;11.27;;;;;;;0.11;100.00;100510.72;837692;23;1533;-83
2022/01/10 02:01:25;;;;;;;20.65;11.52;;;;;;;0.10;100.00;100508.09;829071;23;4518;-83
2022/01/10 02:01:55;;;;;;;19.38;11.57;;;;;;;0.08;100.00;100474.59;833931;23;1531;-83
2022/01/10 02:02:15;;;;;;;19.23;11.50;;;;;;;0.09;100.00;100514.94;834347;23;1339;-83
2022/01/10 02:02:44;;;;;;;18.85;11.27;;;;;;;0.07;100.00;100510.53;827465;23;1334;-83
2022/01/10 02:03:08;;;;;;;20.48;11.70;;;;;;;0.06;100.00;100516.53;826273;23;1572;-83
2022/01/10 02:03:37;;;;;;;21.83;11.75;;;;;;;0.07;100.00;100510.53;829808;23;1446;-83
2022/01/10 02:04:04;;;;;;;18.52;11.38;;;;;;;0.03;100.00;100506.13;827510;23;1331;-83
2022/01/10 02:04:39;;;;;;;20.33;11.98;;;;;;;0.06;100.00;100483.13;828463;23;4325;-83
2022/01/10 02:05:03;;;;;;;19.88;11.93;;;;;;;0.04;100.00;100492.44;836004;23;1426;-83
2022/01/10 02:05:28;;;;;;;21.48;12.15;;;;;;;0.03;100.00;100513.81;829584;23;1462;-83
2022/01/10 02:05:54;;;;;;;20.88;11.98;;;;;;;0.01;100.00;100520.63;834098;23;1463;-83
2022/01/10 02:06:16;;;;;;;20.67;12.15;;;;;;;0.02;100.00;100530.09;838195;23;1398;-83
2022/01/10 02:06:42;;;;;;;18.40;12.23;;;;;;;0.02;100.00;100514.66;824969;23;1721;-83
2022/01/10 02:07:15;;;;;;;21.23;12.32;;;;;;;0.01;100.00;100524.06;834198;23;1181;-83
2022/01/10 02:07:41;;;;;;;21.50;12.32;;;;;;;0.04;100.00;100498.47;833103;23;4885;-83
2022/01/10 02:08:12;;;;;;;20.75;12.05;;;;;;;0.01;100.00;100516.34;834751;23;1737;-83
2022/01/10 02:08:42;;;;;;;20.02;12.43;;;;;;;0.04;100.00;100526.72;836549;23;840;-83
2022/01/10 02:09:14;;;;;;;19.48;11.57;;;;;;;0.02;100.00;100514.66;826865;23;1288;-83
2022/01/10 02:09:39;;;;;;;17.23;12.00;;;;;;;0.04;100.00;100531.00;831093;23;1434;-82
2022/01/10 02:10:07;;;;;;;18.60;11.98;;;;;;;0.08;100.00;100517.44;832131;23;1204;-84
2022/01/10 02:10:27;;;;;;;21.10;12.82;;;;;;;0.08;100.00;100522.59;833144;23;4986;-83
2022/01/10 02:10:54;;;;;;;18.80;11.93;;;;;;;0.08;100.00;100487.47;831353;23;987;-82
2022/01/10 02:11:16;;;;;;;18.85;11.55;;;;;;;0.07;100.00;100524.28;834562;23;1048;-83
2022/01/10 02:11:42;;;;;;;18.88;11.50;;;;;;;0.06;100.00;100501.09;834605;23;900;-83